Time;durP1;ratioP1;P1;durP2;ratioP2;P2;SDS_P1;SDS_P2;PMS_P1;PMS_P2;Temp;Humidity;BMP_temperature;BMP_pressure;BME280_temperature;BME280_humidity;BME280_pressure;Samples;Min_cycle;Max_cycle;Signal;HPM_P1;HPM_P2
2021/08/10 00:00:05;;;;;;;13.65;7.60;;;717.30;1740.80;;;;;;5096969;28;20078;-77
2021/08/10 00:02:30;;;;;;;11.68;7.65;;;717.30;1766.40;;;;;;5098164;28;20531;-78
2021/08/10 00:04:56;;;;;;;8.75;7.43;;;717.20;1766.40;;;;;;5097706;28;20032;-79
2021/08/10 00:07:22;;;;;;;12.48;8.32;;;717.20;1792.00;;;;;;5096553;28;20036;-79
2021/08/10 00:09:48;;;;;;;13.25;8.80;;;717.20;1792.00;;;;;;5096554;28;20031;-77
2021/08/10 00:12:14;;;;;;;10.35;8.63;;;717.20;1792.00;;;;;;5096096;28;20032;-77
2021/08/10 00:14:40;;;;;;;11.27;7.82;;;717.10;1843.20;;;;;;5096250;28;20040;-78
2021/08/10 00:17:06;;;;;;;10.43;7.78;;;717.10;1792.00;;;;;;5096332;28;20420;-77
2021/08/10 00:19:32;;;;;;;11.27;7.68;;;717.10;1817.60;;;;;;5096586;28;20032;-78
2021/08/10 00:21:57;;;;;;;13.20;7.80;;;717.10;1817.60;;;;;;5096656;28;20020;-77
2021/08/10 00:24:23;;;;;;;10.25;7.80;;;717.00;1817.60;;;;;;5096107;28;20444;-77
2021/08/10 00:26:49;;;;;;;13.18;8.73;;;716.90;1817.60;;;;;;5096381;28;20027;-78
2021/08/10 00:29:16;;;;;;;10.05;7.00;;;716.90;1868.80;;;;;;5096096;28;20024;-78
2021/08/10 00:31:41;;;;;;;12.98;8.85;;;716.90;1843.20;;;;;;5097134;28;20024;-78
2021/08/10 00:34:07;;;;;;;10.60;7.93;;;716.80;1843.20;;;;;;5096843;28;20038;-77
2021/08/10 00:36:35;;;;;;;12.38;7.95;;;716.80;1843.20;;;;;;5096696;28;20044;-77
2021/08/10 00:39:01;;;;;;;15.50;8.93;;;716.80;1843.20;;;;;;5096661;28;20032;-78
2021/08/10 00:41:26;;;;;;;12.43;10.30;;;716.80;1868.80;;;;;;5095708;28;20039;-77
2021/08/10 00:43:52;;;;;;;15.32;9.80;;;692.10;1843.20;;;;;;5095713;28;20370;-77
2021/08/10 00:46:18;;;;;;;13.27;9.98;;;692.10;1843.20;;;;;;5095364;28;20036;-79
2021/08/10 00:48:44;;;;;;;12.23;9.63;;;692.00;1868.80;;;;;;5077154;28;20020;-77
2021/08/10 00:51:12;;;;;;;13.50;9.50;;;692.00;1868.80;;;;;;5095430;28;20024;-77
2021/08/10 00:53:37;;;;;;;13.07;9.43;;;691.90;1868.80;;;;;;5078176;28;20027;-79
2021/08/10 00:56:05;;;;;;;14.30;11.18;;;691.90;1868.80;;;;;;5096979;28;20020;-78
2021/08/10 00:58:32;;;;;;;14.20;11.45;;;691.80;1894.40;;;;;;5087552;28;20067;-78
2021/08/10 01:00:58;;;;;;;17.55;11.65;;;691.80;1894.40;;;;;;5078528;28;20554;-78
2021/08/10 01:03:23;;;;;;;12.88;10.77;;;691.70;1894.40;;;;;;5095066;28;20016;-78
2021/08/10 01:05:50;;;;;;;21.10;13.77;;;691.70;1894.40;;;;;;5094918;28;20106;-78
2021/08/10 01:08:44;;;;;;;19.95;13.95;;;691.70;1894.40;;;;;;5094845;28;20111;-79
2021/08/10 01:11:40;;;;;;;17.27;13.98;;;691.60;1945.60;;;;;;5076639;28;20032;-79
2021/08/10 01:14:31;;;;;;;13.30;11.43;;;691.60;1945.60;;;;;;4993524;28;20038;-78
2021/08/10 01:17:02;;;;;;;16.92;12.45;;;691.60;1945.60;;;;;;4993121;28;20031;-78
2021/08/10 01:19:49;;;;;;;15.00;11.73;;;691.50;1971.20;;;;;;4992255;28;20053;-78
2021/08/10 01:22:17;;;;;;;13.43;10.48;;;691.40;1971.20;;;;;;4992855;28;20034;-78
2021/08/10 01:24:54;;;;;;;16.85;10.60;;;691.40;1971.20;;;;;;4994623;28;20042;-76
2021/08/10 01:27:32;;;;;;;15.02;11.07;;;691.30;1971.20;;;;;;4977036;28;20026;-77
2021/08/10 01:30:04;;;;;;;11.80;9.27;;;691.30;1971.20;;;;;;4993574;28;20027;-77
2021/08/10 01:32:32;;;;;;;17.20;9.98;;;691.30;1945.60;;;;;;4993108;28;20038;-77
2021/08/10 01:34:58;;;;;;;14.18;9.48;;;691.40;1945.60;;;;;;4993438;28;20058;-78
2021/08/10 01:37:27;;;;;;;14.60;10.50;;;691.30;1996.80;;;;;;4975258;28;20144;-77
2021/08/10 01:40:01;;;;;;;11.55;9.13;;;691.30;1971.20;;;;;;4992790;28;20046;-77
2021/08/10 01:42:27;;;;;;;12.00;9.07;;;691.30;1996.80;;;;;;4993900;28;20487;-78
2021/08/10 01:44:57;;;;;;;14.27;9.00;;;691.30;1996.80;;;;;;4976192;28;20038;-77
2021/08/10 01:47:24;;;;;;;11.10;9.57;;;691.30;1996.80;;;;;;4976326;28;20033;-77
2021/08/10 01:49:51;;;;;;;9.93;8.40;;;691.20;2022.40;;;;;;4999101;28;20052;-77
2021/08/10 01:52:21;;;;;;;12.82;8.35;;;666.50;2022.40;;;;;;5075890;28;20020;-77
2021/08/10 01:54:47;;;;;;;9.93;8.50;;;666.40;2048.00;;;;;;5094336;28;20024;-77
2021/08/10 01:57:17;;;;;;;9.48;8.50;;;666.30;2048.00;;;;;;5094382;28;20023;-77
2021/08/10 01:59:45;;;;;;;13.00;8.55;;;666.30;1996.80;;;;;;5094021;28;20100;-77
2021/08/10 02:02:11;;;;;;;11.45;7.95;;;666.30;2048.00;;;;;;5075851;28;20388;-77
2021/08/10 02:04:37;;;;;;;11.93;8.15;;;666.20;2073.60;;;;;;5094863;28;20389;-77
2021/08/10 02:07:03;;;;;;;8.68;7.13;;;666.30;2048.00;;;;;;5075305;28;20073;-77
2021/08/10 02:09:30;;;;;;;10.10;8.35;;;666.30;2048.00;;;;;;5094152;28;20036;-77
2021/08/10 02:11:57;;;;;;;12.18;8.55;;;666.40;2048.00;;;;;;5094321;28;20020;-77
2021/08/10 02:14:25;;;;;;;11.23;9.27;;;666.30;2048.00;;;;;;5093872;28;20031;-77
2021/08/10 02:16:55;;;;;;;12.45;8.80;;;666.40;2073.60;;;;;;5094155;28;20474;-76
2021/08/10 02:19:21;;;;;;;12.07;8.73;;;666.30;2073.60;;;;;;5093980;28;20614;-77
2021/08/10 02:21:51;;;;;;;14.65;9.38;;;666.30;2073.60;;;;;;5094922;28;20024;-77
2021/08/10 02:24:31;;;;;;;11.05;8.23;;;666.20;2073.60;;;;;;5094020;28;20028;-78
2021/08/10 02:27:07;;;;;;;13.55;8.88;;;666.10;2099.20;;;;;;5094010;28;20107;-78
2021/08/10 02:29:40;;;;;;;12.80;8.27;;;666.10;2099.20;;;;;;5093817;28;20531;-77
2021/08/10 02:32:07;;;;;;;;;;;666.10;2099.20;;;;;;5094263;28;20032;-77
2021/08/10 02:34:33;;;;;;;13.25;9.00;;;666.00;2099.20;;;;;;5094612;28;20369;-77
2021/08/10 02:37:00;;;;;;;13.43;9.32;;;666.00;2073.60;;;;;;5097628;28;20044;-76
2021/08/10 02:39:27;;;;;;;15.65;8.60;;;666.00;2073.60;;;;;;5097974;28;20466;-77
2021/08/10 02:41:55;;;;;;;12.40;9.38;;;666.00;2124.80;;;;;;5098039;28;20020;-77
2021/08/10 02:44:23;;;;;;;14.45;9.07;;;666.00;2124.80;;;;;;5098521;28;20035;-77
2021/08/10 02:46:48;;;;;;;12.57;10.15;;;666.00;2099.20;;;;;;5097565;28;20017;-77
2021/08/10 02:49:14;;;;;;;12.75;9.57;;;666.00;2124.80;;;;;;5097888;28;20035;-77
2021/08/10 02:51:40;;;;;;;15.00;9.15;;;666.00;2073.60;;;;;;5097595;28;20382;-77
2021/08/10 02:54:06;;;;;;;15.00;9.40;;;666.00;2073.60;;;;;;5079043;28;20066;-76
2021/08/10 02:56:38;;;;;;;12.27;8.52;;;666.00;2073.60;;;;;;5098843;28;20020;-76
2021/08/10 02:59:26;;;;;;;9.75;8.75;;;665.80;2073.60;;;;;;5063113;28;20517;-77
2021/08/10 03:02:35;;;;;;;12.07;8.77;;;665.70;2150.40;;;;;;5097441;28;20047;-79
2021/08/10 03:05:07;;;;;;;12.40;8.68;;;665.60;2176.00;;;;;;4995549;28;20061;-78
2021/08/10 03:07:34;;;;;;;12.90;9.77;;;640.90;2124.80;;;;;;4995225;28;20049;-78
2021/08/10 03:10:03;;;;;;;13.13;9.20;;;640.60;2150.40;;;;;;4995639;28;20077;-78
2021/08/10 03:12:33;;;;;;;13.75;9.68;;;640.60;2150.40;;;;;;4995276;28;20491;-78
2021/08/10 03:14:59;;;;;;;12.20;9.50;;;640.60;2150.40;;;;;;4995254;28;20042;-76
2021/08/10 03:17:32;;;;;;;12.05;9.77;;;640.60;2150.40;;;;;;4995403;28;20116;-76
2021/08/10 03:19:59;;;;;;;15.05;10.80;;;640.70;2150.40;;;;;;4995345;28;20065;-76
2021/08/10 03:22:26;;;;;;;12.05;9.52;;;640.80;2150.40;;;;;;4995658;28;20106;-77
2021/08/10 03:24:54;;;;;;;10.40;8.73;;;640.80;2150.40;;;;;;4995951;28;20030;-77
2021/08/10 03:27:24;;;;;;;11.07;9.15;;;640.80;2150.40;;;;;;4997043;28;20032;-77
2021/08/10 03:29:50;;;;;;;10.80;9.15;;;640.80;2150.40;;;;;;4996301;28;20053;-78
2021/08/10 03:32:17;;;;;;;12.93;9.98;;;640.90;2124.80;;;;;;4965287;28;20035;-79
2021/08/10 03:34:44;;;;;;;13.07;9.10;;;640.90;2124.80;;;;;;4991618;28;20054;-77
2021/08/10 03:37:11;;;;;;;13.68;10.25;;;640.80;2150.40;;;;;;4996064;28;20069;-78
2021/08/10 03:39:39;;;;;;;14.68;9.38;;;640.70;2150.40;;;;;;4996718;28;20045;-79
2021/08/10 03:42:07;;;;;;;14.13;10.77;;;640.70;2150.40;;;;;;5030899;28;20034;-80
2021/08/10 03:44:36;;;;;;;14.13;9.60;;;640.60;2150.40;;;;;;5009709;28;20042;-77
2021/08/10 03:47:02;;;;;;;14.77;9.35;;;640.60;2150.40;;;;;;5042926;28;20022;-77
2021/08/10 03:49:30;;;;;;;14.45;9.82;;;640.60;2176.00;;;;;;5041336;28;20029;-77
2021/08/10 03:51:56;;;;;;;16.38;9.38;;;640.60;2176.00;;;;;;5037921;28;20021;-77
2021/08/10 03:54:22;;;;;;;13.18;9.68;;;640.80;2150.40;;;;;;5037458;28;20549;-77
2021/08/10 03:56:51;;;;;;;9.95;8.90;;;640.60;2176.00;;;;;;5036430;28;20029;-78
2021/08/10 03:59:19;;;;;;;14.40;10.07;;;640.50;2201.60;;;;;;5036723;28;20029;-79
2021/08/10 04:01:48;;;;;;;12.02;9.68;;;640.40;2227.20;;;;;;5036838;28;20053;-79
2021/08/10 04:04:14;;;;;;;12.63;9.02;;;640.30;2227.20;;;;;;5036885;28;20056;-78
2021/08/10 04:06:40;;;;;;;16.17;8.98;;;640.20;2252.80;;;;;;5038094;28;20030;-76
2021/08/10 04:09:07;;;;;;;12.18;9.40;;;640.10;2278.40;;;;;;5038284;28;20028;-78
2021/08/10 04:11:33;;;;;;;12.77;9.23;;;640.10;2278.40;;;;;;5038672;28;20064;-77
2021/08/10 04:14:00;;;;;;;15.15;9.93;;;640.10;2278.40;;;;;;5038361;28;20025;-75
2021/08/10 04:16:29;;;;;;;10.77;8.40;;;640.10;2278.40;;;;;;5050179;28;20057;-77
2021/08/10 04:18:56;;;;;;;16.88;9.40;;;640.10;2252.80;;;;;;5051775;28;20041;-77
2021/08/10 04:21:26;;;;;;;12.75;9.98;;;640.10;2252.80;;;;;;5068502;28;20047;-78
2021/08/10 04:23:52;;;;;;;14.57;9.85;;;640.20;2278.40;;;;;;5067054;28;20029;-78
2021/08/10 04:26:17;;;;;;;13.82;9.20;;;640.20;2252.80;;;;;;5075662;28;20104;-78
2021/08/10 04:28:44;;;;;;;11.50;9.35;;;640.20;2252.80;;;;;;5075825;28;20024;-77
2021/08/10 04:31:13;;;;;;;13.40;8.82;;;640.20;2252.80;;;;;;5052324;28;20017;-78
2021/08/10 04:33:38;;;;;;;12.98;9.75;;;640.20;2252.80;;;;;;5066705;28;20107;-79
2021/08/10 04:36:04;;;;;;;11.60;8.88;;;640.30;2227.20;;;;;;5062293;28;20486;-76
2021/08/10 04:38:30;;;;;;;13.95;10.13;;;640.30;2227.20;;;;;;5080905;28;20043;-79
2021/08/10 04:40:56;;;;;;;13.25;8.82;;;640.30;2252.80;;;;;;5091757;28;20024;-79
2021/08/10 04:43:21;;;;;;;14.40;9.95;;;640.30;2252.80;;;;;;5081263;28;20073;-78
2021/08/10 04:45:47;;;;;;;11.60;9.40;;;640.30;2252.80;;;;;;5083445;28;20021;-78
2021/08/10 04:48:13;;;;;;;14.63;9.88;;;640.30;2252.80;;;;;;5075553;28;20569;-77
2021/08/10 04:50:38;;;;;;;12.93;8.88;;;640.40;2252.80;;;;;;5076748;28;20028;-77
2021/08/10 04:53:04;;;;;;;16.35;11.20;;;640.40;2252.80;;;;;;5086954;28;20024;-76
2021/08/10 04:55:30;;;;;;;11.57;9.75;;;640.40;2252.80;;;;;;5095884;28;20020;-77
2021/08/10 04:57:55;;;;;;;13.85;9.90;;;640.40;2252.80;;;;;;5096376;28;20492;-77
2021/08/10 05:00:23;;;;;;;11.25;9.98;;;640.50;2252.80;;;;;;5090884;28;20041;-76
2021/08/10 05:02:49;;;;;;;12.93;10.07;;;640.50;2227.20;;;;;;5074252;28;20028;-77
2021/08/10 05:05:15;;;;;;;16.35;9.68;;;640.50;2227.20;;;;;;5089311;28;20362;-77
2021/08/10 05:07:40;;;;;;;13.27;10.73;;;640.60;2227.20;;;;;;5056837;28;20024;-79
2021/08/10 05:10:06;;;;;;;14.07;8.85;;;640.60;2227.20;;;;;;5074873;28;20024;-78
2021/08/10 05:12:34;;;;;;;13.30;9.80;;;640.70;2227.20;;;;;;5073477;28;20222;-78
2021/08/10 05:15:00;;;;;;;11.27;9.25;;;640.70;2227.20;;;;;;5074524;28;20031;-79
2021/08/10 05:17:26;;;;;;;14.73;9.55;;;640.70;2227.20;;;;;;5055956;28;20032;-79
2021/08/10 05:19:52;;;;;;;12.90;9.25;;;640.70;2227.20;;;;;;5074360;28;20040;-79
2021/08/10 05:22:18;;;;;;;14.70;9.73;;;640.90;2227.20;;;;;;5074488;28;20021;-78
2021/08/10 05:24:44;;;;;;;12.95;9.38;;;640.90;2227.20;;;;;;5075549;28;20020;-78
2021/08/10 05:27:10;;;;;;;16.02;10.02;;;640.90;2227.20;;;;;;5073552;28;20488;-79
2021/08/10 05:29:35;;;;;;;15.40;10.23;;;665.60;2278.40;;;;;;5073867;28;20111;-76
2021/08/10 05:32:01;;;;;;;11.75;9.98;;;665.60;2252.80;;;;;;5073903;28;20481;-78
2021/08/10 05:34:27;;;;;;;13.95;10.18;;;665.70;2227.20;;;;;;5073950;28;20033;-77
2021/08/10 05:36:53;;;;;;;17.77;10.27;;;665.80;2227.20;;;;;;5073923;28;20186;-77
2021/08/10 05:39:18;;;;;;;15.65;9.38;;;665.90;2201.60;;;;;;5073571;28;20039;-76
2021/08/10 05:41:44;;;;;;;16.17;10.27;;;665.80;2227.20;;;;;;5074192;28;20029;-77
2021/08/10 05:44:09;;;;;;;12.00;9.27;;;665.90;2227.20;;;;;;5074465;28;20021;-77
2021/08/10 05:46:35;;;;;;;15.40;10.45;;;666.10;2201.60;;;;;;5074034;28;20021;-77
2021/08/10 05:49:01;;;;;;;18.08;9.93;;;666.20;2252.80;;;;;;5074259;28;20032;-77
2021/08/10 05:51:27;;;;;;;12.43;9.35;;;666.20;2227.20;;;;;;5074490;28;20021;-79
2021/08/10 05:53:53;;;;;;;16.00;9.88;;;666.30;2201.60;;;;;;5073771;28;20025;-78
2021/08/10 05:56:19;;;;;;;18.95;10.45;;;666.40;2227.20;;;;;;5074170;28;20028;-78
2021/08/10 05:58:45;;;;;;;17.85;11.43;;;666.40;2201.60;;;;;;5074097;28;20029;-78
2021/08/10 06:01:10;;;;;;;20.13;10.57;;;666.50;2150.40;;;;;;5074024;28;20082;-77
2021/08/10 06:03:36;;;;;;;13.18;9.98;;;691.30;2176.00;;;;;;5074129;28;20565;-77
2021/08/10 06:06:02;;;;;;;15.98;9.40;;;691.30;2176.00;;;;;;5073948;28;20190;-77
2021/08/10 06:08:28;;;;;;;15.15;11.80;;;691.40;2150.40;;;;;;5073749;28;20040;-78
2021/08/10 06:10:54;;;;;;;15.02;10.38;;;691.50;2150.40;;;;;;5073389;28;20028;-77
2021/08/10 06:13:19;;;;;;;16.63;10.45;;;691.60;2124.80;;;;;;5073276;28;20033;-78
2021/08/10 06:15:45;;;;;;;16.42;9.82;;;691.70;2099.20;;;;;;5073670;28;20024;-77
2021/08/10 06:18:11;;;;;;;17.27;10.43;;;691.80;2073.60;;;;;;5073555;28;20029;-77
2021/08/10 06:20:36;;;;;;;16.77;9.77;;;691.90;2073.60;;;;;;5073703;28;20095;-77
2021/08/10 06:23:04;;;;;;;13.25;9.95;;;692.10;2048.00;;;;;;5073551;28;20028;-78
2021/08/10 06:25:29;;;;;;;14.25;9.48;;;716.80;2073.60;;;;;;5073484;28;20413;-78
2021/08/10 06:27:55;;;;;;;12.27;9.52;;;716.80;2048.00;;;;;;5073449;28;20020;-77
2021/08/10 06:30:22;;;;;;;14.80;10.40;;;717.00;2048.00;;;;;;5073117;28;20055;-79
2021/08/10 06:32:48;;;;;;;14.70;10.05;;;717.10;2048.00;;;;;;5073345;28;20016;-79
2021/08/10 06:35:13;;;;;;;10.80;9.25;;;717.20;2022.40;;;;;;5073319;28;20082;-78
2021/08/10 06:37:39;;;;;;;13.85;9.48;;;717.30;1996.80;;;;;;5073056;28;20101;-78
2021/08/10 06:40:05;;;;;;;18.48;9.00;;;717.40;2022.40;;;;;;5073295;28;20063;-78
2021/08/10 06:42:31;;;;;;;12.65;9.48;;;717.50;1996.80;;;;;;5073373;28;20024;-78
2021/08/10 06:44:59;;;;;;;11.95;9.05;;;717.50;1996.80;;;;;;5073570;28;20062;-78
2021/08/10 06:47:25;;;;;;;13.93;8.88;;;717.60;1971.20;;;;;;5073258;28;20024;-78
2021/08/10 06:49:51;;;;;;;14.75;10.50;;;717.70;1971.20;;;;;;5073517;28;20422;-78
2021/08/10 06:52:17;;;;;;;14.95;8.52;;;717.70;1996.80;;;;;;5073183;28;20050;-78
2021/08/10 06:54:43;;;;;;;13.40;9.55;;;717.60;1945.60;;;;;;5055659;28;20028;-77
2021/08/10 06:57:10;;;;;;;14.45;10.27;;;742.60;1945.60;;;;;;5055495;28;20040;-78
2021/08/10 06:59:36;;;;;;;11.10;8.45;;;742.70;1945.60;;;;;;5071600;28;20150;-78
2021/08/10 07:02:06;;;;;;;16.20;8.65;;;742.70;1920.00;;;;;;5073806;28;20027;-78
2021/08/10 07:04:33;;;;;;;13.68;8.98;;;742.90;1920.00;;;;;;5073496;28;20025;-78
2021/08/10 07:07:04;;;;;;;11.57;9.02;;;742.90;1894.40;;;;;;5055354;28;20424;-78
2021/08/10 07:09:29;;;;;;;14.57;8.38;;;743.00;1894.40;;;;;;5072994;28;20055;-78
2021/08/10 07:11:55;;;;;;;11.13;8.52;;;743.10;1894.40;;;;;;5073413;28;20052;-78
2021/08/10 07:14:21;;;;;;;12.05;8.25;;;743.10;1894.40;;;;;;5073260;28;20074;-76
2021/08/10 07:16:47;;;;;;;16.02;8.75;;;743.20;1894.40;;;;;;5072654;28;20017;-79
2021/08/10 07:19:13;;;;;;;15.88;9.15;;;768.00;1868.80;;;;;;5073784;28;20044;-77
2021/08/10 07:21:40;;;;;;;14.48;9.13;;;768.10;1843.20;;;;;;5074371;28;20016;-77
2021/08/10 07:24:06;;;;;;;13.93;9.07;;;768.20;1817.60;;;;;;5076477;28;20382;-78
2021/08/10 07:26:32;;;;;;;10.10;8.27;;;768.30;1843.20;;;;;;5076691;28;20096;-76
2021/08/10 07:28:58;;;;;;;15.38;8.43;;;768.40;1843.20;;;;;;5058921;28;20059;-77
2021/08/10 07:31:24;;;;;;;10.50;7.93;;;768.60;1817.60;;;;;;5076633;28;20474;-77
2021/08/10 07:33:50;;;;;;;11.35;7.28;;;768.70;1843.20;;;;;;5076684;28;20035;-77
2021/08/10 07:36:16;;;;;;;11.20;7.80;;;768.80;1766.40;;;;;;5076504;28;20546;-77
2021/08/10 07:38:43;;;;;;;12.55;8.07;;;768.90;1766.40;;;;;;5076657;28;20052;-78
2021/08/10 07:41:09;;;;;;;11.88;8.27;;;793.60;1792.00;;;;;;5058767;28;20051;-78
2021/08/10 07:43:34;;;;;;;9.75;7.15;;;793.70;1817.60;;;;;;5076660;28;20454;-79
2021/08/10 07:46:00;;;;;;;16.65;7.13;;;793.80;1766.40;;;;;;5076244;28;20482;-78
2021/08/10 07:48:26;;;;;;;9.95;6.40;;;794.00;1740.80;;;;;;5077387;28;20049;-78
2021/08/10 07:50:52;;;;;;;8.80;6.20;;;794.00;1689.60;;;;;;5077198;28;20103;-78
2021/08/10 07:53:21;;;;;;;9.90;6.63;;;794.10;1689.60;;;;;;5060171;28;20025;-79
2021/08/10 07:56:04;;;;;;;13.85;7.75;;;794.20;1689.60;;;;;;5075974;28;20032;-77
2021/08/10 07:58:30;;;;;;;10.82;6.47;;;794.30;1689.60;;;;;;5057779;28;20479;-77
2021/08/10 08:00:56;;;;;;;7.80;5.90;;;794.50;1664.00;;;;;;5076273;28;20103;-77
2021/08/10 08:03:23;;;;;;;8.15;5.55;;;794.50;1587.20;;;;;;5076774;28;20051;-77
2021/08/10 08:05:50;;;;;;;9.20;5.97;;;819.30;1587.20;;;;;;5078071;28;20028;-77
2021/08/10 08:08:15;;;;;;;10.50;6.45;;;819.30;1612.80;;;;;;5076227;28;20050;-80
2021/08/10 08:10:41;;;;;;;8.77;6.32;;;819.40;1587.20;;;;;;5077449;28;20167;-79
2021/08/10 08:13:07;;;;;;;6.78;5.18;;;819.50;1587.20;;;;;;5075617;28;20086;-79
2021/08/10 08:15:34;;;;;;;10.25;6.30;;;819.60;1561.60;;;;;;5078632;28;20099;-78
2021/08/10 08:18:01;;;;;;;7.47;5.65;;;819.60;1612.80;;;;;;5078468;28;20484;-79
2021/08/10 08:20:26;;;;;;;8.15;6.18;;;819.80;1536.00;;;;;;5079236;28;20044;-80
2021/08/10 08:22:53;;;;;;;8.30;5.70;;;819.80;1536.00;;;;;;5075651;28;21064;-79
2021/08/10 08:25:18;;;;;;;13.93;5.47;;;819.80;1536.00;;;;;;5075668;28;20028;-78
2021/08/10 08:27:45;;;;;;;9.13;6.82;;;819.90;1536.00;;;;;;5075771;28;20024;-79
2021/08/10 08:30:11;;;;;;;16.20;6.97;;;820.10;1536.00;;;;;;5057497;28;20368;-79
2021/08/10 08:32:37;;;;;;;9.05;6.05;;;820.00;1536.00;;;;;;5075292;28;20024;-79
2021/08/10 08:35:03;;;;;;;7.47;5.38;;;820.10;1536.00;;;;;;5056795;28;20124;-80
2021/08/10 08:37:29;;;;;;;9.88;6.45;;;844.80;1510.40;;;;;;5057532;28;20139;-79
2021/08/10 08:39:54;;;;;;;9.63;7.20;;;844.80;1561.60;;;;;;5075543;28;20527;-78
2021/08/10 08:42:22;;;;;;;9.10;6.25;;;844.90;1561.60;;;;;;5074112;28;20033;-79
2021/08/10 08:44:48;;;;;;;13.82;7.50;;;845.00;1561.60;;;;;;5076249;28;20069;-80
2021/08/10 08:47:20;;;;;;;12.88;6.30;;;845.10;1536.00;;;;;;5075053;28;20046;-79
2021/08/10 08:49:48;;;;;;;14.35;6.90;;;845.20;1561.60;;;;;;5075649;28;20070;-79
2021/08/10 08:52:16;;;;;;;10.80;6.22;;;845.40;1587.20;;;;;;5075493;28;20027;-78
2021/08/10 08:54:42;;;;;;;9.63;7.18;;;845.40;1536.00;;;;;;5074908;28;20017;-79
2021/08/10 08:57:09;;;;;;;11.57;6.43;;;845.70;1510.40;;;;;;5074809;28;20095;-80
2021/08/10 08:59:35;;;;;;;11.18;6.15;;;845.60;1484.80;;;;;;5073441;28;20094;-80
2021/08/10 09:02:01;;;;;;;11.25;6.32;;;845.40;1484.80;;;;;;5074991;28;20100;-79
2021/08/10 09:04:27;;;;;;;11.25;7.03;;;845.60;1510.40;;;;;;5057131;28;20054;-81
2021/08/10 09:06:56;;;;;;;20.77;9.65;;;845.40;1484.80;;;;;;5075505;28;20493;-79
2021/08/10 09:09:28;;;;;;;11.38;7.03;;;845.60;1510.40;;;;;;5073703;28;20506;-79
2021/08/10 09:11:59;;;;;;;11.80;6.05;;;845.70;1510.40;;;;;;5075279;28;20028;-79
2021/08/10 09:14:41;;;;;;;9.27;6.05;;;845.70;1484.80;;;;;;5057084;28;20040;-80
2021/08/10 09:17:09;;;;;;;8.82;6.22;;;845.70;1484.80;;;;;;5075777;28;20020;-79
2021/08/10 09:19:50;;;;;;;12.13;6.60;;;870.50;1484.80;;;;;;5074831;28;20036;-79
2021/08/10 09:22:32;;;;;;;10.15;6.38;;;870.50;1484.80;;;;;;5056999;28;20023;-79
2021/08/10 09:25:04;;;;;;;8.55;6.50;;;870.80;1510.40;;;;;;5057061;28;20025;-78
2021/08/10 09:27:38;;;;;;;9.82;6.57;;;870.90;1459.20;;;;;;5075055;28;20088;-78
2021/08/10 09:30:24;;;;;;;10.77;6.85;;;871.00;1433.60;;;;;;5075042;28;20074;-78
2021/08/10 09:33:00;;;;;;;8.65;5.75;;;871.10;1408.00;;;;;;5074820;28;20020;-78
2021/08/10 09:35:33;;;;;;;11.30;6.82;;;871.10;1408.00;;;;;;5075298;28;20013;-78
2021/08/10 09:38:09;;;;;;;10.32;6.53;;;871.20;1408.00;;;;;;5074836;28;20044;-78
2021/08/10 09:40:36;;;;;;;8.13;6.60;;;896.00;1382.40;;;;;;5074407;28;20032;-78
2021/08/10 09:43:17;;;;;;;9.65;6.22;;;871.30;1382.40;;;;;;5074978;28;20028;-78
2021/08/10 09:45:43;;;;;;;9.57;6.72;;;871.30;1408.00;;;;;;5074137;28;20028;-78
2021/08/10 09:48:16;;;;;;;10.40;6.13;;;896.00;1382.40;;;;;;5073479;28;20024;-79
2021/08/10 09:50:42;;;;;;;10.45;6.22;;;896.00;1356.80;;;;;;5055991;28;20036;-78
2021/08/10 09:53:19;;;;;;;10.98;7.18;;;896.00;1356.80;;;;;;5074424;28;20021;-79
2021/08/10 09:55:55;;;;;;;12.10;6.68;;;896.00;1305.60;;;;;;5074316;28;20017;-78
2021/08/10 09:58:21;;;;;;;7.57;5.35;;;896.00;1331.20;;;;;;5056311;28;20024;-78
2021/08/10 10:00:46;;;;;;;8.85;6.53;;;896.10;1305.60;;;;;;5074318;28;20088;-78
2021/08/10 10:03:15;;;;;;;8.23;5.85;;;896.20;1305.60;;;;;;5074468;28;20052;-78
2021/08/10 10:05:43;;;;;;;9.85;6.07;;;896.30;1280.00;;;;;;5074658;28;20462;-79
2021/08/10 10:08:18;;;;;;;10.88;7.32;;;896.50;1331.20;;;;;;5074580;28;20458;-78
2021/08/10 10:10:45;;;;;;;10.30;6.43;;;896.60;1254.40;;;;;;5057764;28;20028;-78
2021/08/10 10:13:13;;;;;;;9.18;5.85;;;896.70;1228.80;;;;;;5073258;28;20028;-78
2021/08/10 10:15:39;;;;;;;8.32;6.18;;;921.60;1280.00;;;;;;5072683;28;20021;-79
2021/08/10 10:18:11;;;;;;;9.63;5.90;;;921.60;1254.40;;;;;;5073973;28;20320;-78
2021/08/10 10:20:43;;;;;;;9.63;6.60;;;921.90;1305.60;;;;;;5056567;28;20490;-78
2021/08/10 10:23:12;;;;;;;;;;;922.00;1305.60;;;;;;5056882;28;20482;-79
2021/08/10 10:25:38;;;;;;;10.77;6.63;;;922.10;1280.00;;;;;;5073503;28;19911;-79
2021/08/10 10:28:05;;;;;;;9.18;7.00;;;922.20;1254.40;;;;;;5074195;28;20448;-78
2021/08/10 10:30:30;;;;;;;11.38;6.85;;;922.50;1254.40;;;;;;5056173;28;20028;-78
2021/08/10 10:32:58;;;;;;;8.68;7.25;;;922.50;1228.80;;;;;;5072309;28;20420;-78
2021/08/10 10:35:25;;;;;;;9.52;7.30;;;947.20;1254.40;;;;;;5073586;28;20017;-79
2021/08/10 10:37:52;;;;;;;9.45;7.15;;;947.30;1228.80;;;;;;5073088;28;20055;-78
2021/08/10 10:40:19;;;;;;;9.75;6.72;;;947.40;1177.60;;;;;;5073110;28;20086;-78
2021/08/10 10:42:47;;;;;;;10.38;7.78;;;947.40;1203.20;;;;;;5073184;28;20021;-78
2021/08/10 10:45:37;;;;;;;11.18;7.03;;;947.60;1203.20;;;;;;5073442;28;20024;-78
2021/08/10 10:48:24;;;;;;;9.20;7.25;;;947.70;1203.20;;;;;;5073735;28;20043;-78
2021/08/10 10:51:11;;;;;;;8.68;6.80;;;947.80;1177.60;;;;;;5074153;28;20107;-79
2021/08/10 10:53:39;;;;;;;9.88;7.97;;;947.90;1152.00;;;;;;5074061;28;20108;-77
2021/08/10 10:56:25;;;;;;;12.95;7.20;;;947.90;1203.20;;;;;;5076580;28;20048;-78
2021/08/10 10:59:15;;;;;;;8.35;7.47;;;948.10;1152.00;;;;;;5079193;28;20103;-78
2021/08/10 11:01:40;;;;;;;10.27;7.18;;;972.80;1152.00;;;;;;5076594;28;20115;-77
2021/08/10 11:04:08;;;;;;;11.93;7.70;;;972.80;1126.40;;;;;;5075335;28;20052;-78
2021/08/10 11:06:36;;;;;;;8.50;5.90;;;972.80;1177.60;;;;;;5059451;28;20071;-78
2021/08/10 11:09:04;;;;;;;7.82;6.85;;;972.90;1177.60;;;;;;5077267;28;20029;-79
2021/08/10 11:11:52;;;;;;;8.80;7.38;;;973.10;1152.00;;;;;;5059151;28;20063;-78
2021/08/10 11:14:36;;;;;;;9.68;7.50;;;973.20;1152.00;;;;;;5076575;28;20070;-80
2021/08/10 11:17:11;;;;;;;12.10;8.52;;;973.20;1100.80;;;;;;5077322;28;20029;-79
2021/08/10 11:19:43;;;;;;;14.75;10.05;;;973.10;1100.80;;;;;;5077395;28;20079;-77
2021/08/10 11:22:35;;;;;;;;;;;973.10;1152.00;;;;;;5077984;28;20023;-77
2021/08/10 11:25:21;;;;;;;7.90;7.10;;;973.20;1126.40;;;;;;4976914;28;19933;-78
2021/08/10 11:27:47;;;;;;;9.25;7.88;;;973.20;1126.40;;;;;;4975731;28;20074;-77
2021/08/10 11:30:24;;;;;;;8.88;7.97;;;973.40;1126.40;;;;;;4976179;28;20042;-79
2021/08/10 11:32:51;;;;;;;9.90;7.22;;;973.60;1100.80;;;;;;4975956;28;20085;-80
2021/08/10 11:35:29;;;;;;;9.68;6.88;;;973.40;1049.60;;;;;;4975967;28;20027;-80
2021/08/10 11:38:09;;;;;;;9.27;7.45;;;973.30;1075.20;;;;;;4976279;28;20058;-79
2021/08/10 11:41:04;;;;;;;11.07;8.13;;;973.50;1075.20;;;;;;4976351;28;20050;-80
2021/08/10 11:43:46;;;;;;;9.48;8.38;;;973.40;1075.20;;;;;;4956681;28;20136;-78
2021/08/10 11:46:26;;;;;;;13.63;9.57;;;973.30;1100.80;;;;;;4956453;28;20028;-78
2021/08/10 11:49:06;;;;;;;14.40;9.98;;;973.40;1152.00;;;;;;4957012;28;20031;-78
2021/08/10 11:51:38;;;;;;;13.20;9.18;;;973.50;1152.00;;;;;;4956647;29;20431;-78
2021/08/10 11:54:12;;;;;;;14.48;9.00;;;973.60;1126.40;;;;;;4956631;28;20639;-79
2021/08/10 11:56:43;;;;;;;12.57;9.95;;;998.40;1152.00;;;;;;4955807;28;20031;-79
2021/08/10 11:59:20;;;;;;;11.18;9.27;;;998.50;1152.00;;;;;;4956350;28;20065;-78
2021/08/10 12:01:47;;;;;;;14.70;8.55;;;998.70;1100.80;;;;;;4984499;28;20033;-78
2021/08/10 12:04:21;;;;;;;9.50;8.50;;;998.60;1100.80;;;;;;5015451;28;20029;-78
2021/08/10 12:07:04;;;;;;;16.27;9.77;;;998.50;1100.80;;;;;;5013760;28;20044;-78
2021/08/10 12:09:35;;;;;;;10.20;8.57;;;998.60;1100.80;;;;;;5014029;28;20054;-78
2021/08/10 12:12:03;;;;;;;15.05;9.40;;;998.70;1075.20;;;;;;5014127;28;20101;-78
2021/08/10 12:14:30;;;;;;;9.82;8.82;;;998.80;1126.40;;;;;;4994219;28;20165;-78
2021/08/10 12:16:59;;;;;;;11.52;9.82;;;998.80;1100.80;;;;;;5013448;28;20153;-77